sensor_id;sensor_type;location;lat;lon;timestamp;P1;durP1;ratioP1;P2;durP2;ratioP2
75603;SDS011;64187;51.010;13.792;2022-10-16T00:01:47;20.13;;;13.38;;
75603;SDS011;64187;51.010;13.792;2022-10-16T00:06:45;23.80;;;14.20;;
75603;SDS011;64187;51.010;13.792;2022-10-16T00:11:44;21.02;;;12.73;;
75603;SDS011;64187;51.010;13.792;2022-10-16T00:16:44;20.15;;;12.75;;
75603;SDS011;64187;51.010;13.792;2022-10-16T00:21:42;21.23;;;12.32;;
75603;SDS011;64187;51.010;13.792;2022-10-16T00:26:41;17.23;;;10.90;;
75603;SDS011;64187;51.010;13.792;2022-10-16T00:31:40;19.85;;;11.88;;
75603;SDS011;64187;51.010;13.792;2022-10-16T00:36:39;19.70;;;12.38;;
75603;SDS011;64187;51.010;13.792;2022-10-16T00:41:38;18.48;;;11.95;;
75603;SDS011;64187;51.010;13.792;2022-10-16T00:46:38;19.77;;;12.38;;
75603;SDS011;64187;51.010;13.792;2022-10-16T00:51:48;20.20;;;12.10;;
75603;SDS011;64187;51.010;13.792;2022-10-16T00:56:49;18.70;;;11.48;;
75603;SDS011;64187;51.010;13.792;2022-10-16T01:01:49;20.40;;;12.38;;
75603;SDS011;64187;51.010;13.792;2022-10-16T01:06:55;17.65;;;11.40;;
75603;SDS011;64187;51.010;13.792;2022-10-16T01:17:29;17.63;;;11.65;;
75603;SDS011;64187;51.010;13.792;2022-10-16T01:22:37;17.27;;;11.02;;
75603;SDS011;64187;51.010;13.792;2022-10-16T01:27:45;18.77;;;12.10;;
75603;SDS011;64187;51.010;13.792;2022-10-16T01:32:48;18.92;;;11.50;;
75603;SDS011;64187;51.010;13.792;2022-10-16T01:37:56;18.33;;;11.23;;
75603;SDS011;64187;51.010;13.792;2022-10-16T01:43:03;16.67;;;10.60;;
75603;SDS011;64187;51.010;13.792;2022-10-16T01:48:05;16.02;;;10.40;;
75603;SDS011;64187;51.010;13.792;2022-10-16T01:53:08;17.83;;;11.30;;
75603;SDS011;64187;51.010;13.792;2022-10-16T01:58:10;14.70;;;9.73;;
75603;SDS011;64187;51.010;13.792;2022-10-16T02:03:11;16.48;;;10.05;;
75603;SDS011;64187;51.010;13.792;2022-10-16T02:08:12;19.02;;;12.13;;
75603;SDS011;64187;51.010;13.792;2022-10-16T02:18:31;18.58;;;12.23;;
75603;SDS011;64187;51.010;13.792;2022-10-16T02:23:40;19.70;;;13.52;;
75603;SDS011;64187;51.010;13.792;2022-10-16T02:34:34;20.52;;;13.00;;
75603;SDS011;64187;51.010;13.792;2022-10-16T02:39:34;18.38;;;12.65;;
75603;SDS011;64187;51.010;13.792;2022-10-16T02:44:33;16.98;;;11.82;;
75603;SDS011;64187;51.010;13.792;2022-10-16T02:49:32;19.70;;;13.73;;
75603;SDS011;64187;51.010;13.792;2022-10-16T02:54:31;19.02;;;12.05;;
75603;SDS011;64187;51.010;13.792;2022-10-16T02:59:30;19.60;;;12.82;;
75603;SDS011;64187;51.010;13.792;2022-10-16T03:04:29;20.88;;;13.57;;
75603;SDS011;64187;51.010;13.792;2022-10-16T03:09:27;17.25;;;12.00;;
75603;SDS011;64187;51.010;13.792;2022-10-16T03:14:26;20.50;;;12.98;;
75603;SDS011;64187;51.010;13.792;2022-10-16T03:19:30;19.73;;;13.07;;
75603;SDS011;64187;51.010;13.792;2022-10-16T03:24:29;17.50;;;12.25;;
75603;SDS011;64187;51.010;13.792;2022-10-16T03:29:27;17.52;;;11.32;;
75603;SDS011;64187;51.010;13.792;2022-10-16T03:34:27;17.85;;;12.10;;
75603;SDS011;64187;51.010;13.792;2022-10-16T03:39:26;17.27;;;12.00;;
75603;SDS011;64187;51.010;13.792;2022-10-16T03:44:25;17.80;;;11.85;;
75603;SDS011;64187;51.010;13.792;2022-10-16T03:49:24;20.58;;;12.95;;
75603;SDS011;64187;51.010;13.792;2022-10-16T03:54:23;18.38;;;12.35;;
75603;SDS011;64187;51.010;13.792;2022-10-16T03:59:22;19.95;;;13.50;;
75603;SDS011;64187;51.010;13.792;2022-10-16T04:04:21;20.13;;;12.60;;
75603;SDS011;64187;51.010;13.792;2022-10-16T04:09:20;20.55;;;12.85;;
75603;SDS011;64187;51.010;13.792;2022-10-16T04:14:18;17.73;;;12.75;;
75603;SDS011;64187;51.010;13.792;2022-10-16T04:19:17;17.45;;;12.00;;
75603;SDS011;64187;51.010;13.792;2022-10-16T04:24:16;17.80;;;12.23;;
75603;SDS011;64187;51.010;13.792;2022-10-16T04:29:15;16.63;;;11.93;;
75603;SDS011;64187;51.010;13.792;2022-10-16T04:34:13;15.27;;;11.60;;
75603;SDS011;64187;51.010;13.792;2022-10-16T04:39:12;17.50;;;12.95;;
75603;SDS011;64187;51.010;13.792;2022-10-16T04:44:11;21.15;;;12.63;;
75603;SDS011;64187;51.010;13.792;2022-10-16T04:49:10;16.42;;;11.35;;
75603;SDS011;64187;51.010;13.792;2022-10-16T04:54:09;17.02;;;11.60;;
75603;SDS011;64187;51.010;13.792;2022-10-16T04:59:08;13.98;;;10.13;;
75603;SDS011;64187;51.010;13.792;2022-10-16T05:04:08;18.13;;;12.30;;
75603;SDS011;64187;51.010;13.792;2022-10-16T05:09:07;16.50;;;11.23;;
75603;SDS011;64187;51.010;13.792;2022-10-16T05:14:07;17.52;;;11.63;;
75603;SDS011;64187;51.010;13.792;2022-10-16T05:19:05;16.75;;;11.10;;
75603;SDS011;64187;51.010;13.792;2022-10-16T05:24:24;18.45;;;12.60;;
75603;SDS011;64187;51.010;13.792;2022-10-16T05:29:24;14.52;;;10.65;;
75603;SDS011;64187;51.010;13.792;2022-10-16T05:34:23;16.10;;;11.35;;
75603;SDS011;64187;51.010;13.792;2022-10-16T05:39:22;16.85;;;10.95;;
75603;SDS011;64187;51.010;13.792;2022-10-16T05:44:21;15.93;;;10.52;;
75603;SDS011;64187;51.010;13.792;2022-10-16T05:49:20;15.50;;;11.18;;
75603;SDS011;64187;51.010;13.792;2022-10-16T05:54:18;14.82;;;11.13;;
75603;SDS011;64187;51.010;13.792;2022-10-16T05:59:17;15.73;;;11.85;;
75603;SDS011;64187;51.010;13.792;2022-10-16T06:04:16;15.68;;;11.52;;
75603;SDS011;64187;51.010;13.792;2022-10-16T06:09:15;13.73;;;10.82;;
75603;SDS011;64187;51.010;13.792;2022-10-16T06:14:14;14.18;;;10.48;;
75603;SDS011;64187;51.010;13.792;2022-10-16T06:19:13;15.82;;;11.75;;
75603;SDS011;64187;51.010;13.792;2022-10-16T06:24:11;15.07;;;10.90;;
75603;SDS011;64187;51.010;13.792;2022-10-16T06:29:10;16.92;;;11.23;;
75603;SDS011;64187;51.010;13.792;2022-10-16T06:34:09;16.65;;;12.55;;
75603;SDS011;64187;51.010;13.792;2022-10-16T06:39:09;16.05;;;10.90;;
75603;SDS011;64187;51.010;13.792;2022-10-16T06:44:08;15.77;;;9.68;;
75603;SDS011;64187;51.010;13.792;2022-10-16T06:49:07;12.15;;;8.50;;
75603;SDS011;64187;51.010;13.792;2022-10-16T06:54:06;11.63;;;7.47;;
75603;SDS011;64187;51.010;13.792;2022-10-16T06:59:04;17.05;;;12.02;;
75603;SDS011;64187;51.010;13.792;2022-10-16T07:04:03;17.60;;;11.75;;
75603;SDS011;64187;51.010;13.792;2022-10-16T07:09:03;20.85;;;13.55;;
75603;SDS011;64187;51.010;13.792;2022-10-16T07:14:04;16.33;;;11.88;;
75603;SDS011;64187;51.010;13.792;2022-10-16T07:19:03;19.52;;;12.82;;
75603;SDS011;64187;51.010;13.792;2022-10-16T07:24:02;17.92;;;12.40;;
75603;SDS011;64187;51.010;13.792;2022-10-16T07:29:02;15.98;;;11.50;;
75603;SDS011;64187;51.010;13.792;2022-10-16T07:34:02;15.93;;;12.18;;
75603;SDS011;64187;51.010;13.792;2022-10-16T07:39:01;17.13;;;12.32;;
75603;SDS011;64187;51.010;13.792;2022-10-16T07:44:00;16.15;;;12.60;;
75603;SDS011;64187;51.010;13.792;2022-10-16T07:48:59;19.38;;;13.10;;
75603;SDS011;64187;51.010;13.792;2022-10-16T07:53:58;17.30;;;12.52;;
75603;SDS011;64187;51.010;13.792;2022-10-16T07:58:57;16.00;;;12.40;;
75603;SDS011;64187;51.010;13.792;2022-10-16T08:03:55;19.08;;;13.73;;
75603;SDS011;64187;51.010;13.792;2022-10-16T08:08:55;18.85;;;13.90;;
75603;SDS011;64187;51.010;13.792;2022-10-16T08:13:58;19.50;;;14.02;;
75603;SDS011;64187;51.010;13.792;2022-10-16T08:18:57;17.05;;;13.13;;
75603;SDS011;64187;51.010;13.792;2022-10-16T08:23:56;15.13;;;11.63;;
75603;SDS011;64187;51.010;13.792;2022-10-16T08:28:56;16.42;;;13.38;;
75603;SDS011;64187;51.010;13.792;2022-10-16T08:33:55;14.75;;;12.48;;
75603;SDS011;64187;51.010;13.792;2022-10-16T08:38:53;15.80;;;11.80;;
75603;SDS011;64187;51.010;13.792;2022-10-16T08:49:16;15.88;;;12.65;;
75603;SDS011;64187;51.010;13.792;2022-10-16T08:54:32;14.73;;;11.80;;
75603;SDS011;64187;51.010;13.792;2022-10-16T08:59:39;12.32;;;10.57;;
75603;SDS011;64187;51.010;13.792;2022-10-16T09:04:46;13.90;;;11.75;;
75603;SDS011;64187;51.010;13.792;2022-10-16T09:10:12;11.52;;;9.70;;
75603;SDS011;64187;51.010;13.792;2022-10-16T09:15:34;16.35;;;12.57;;
75603;SDS011;64187;51.010;13.792;2022-10-16T09:25:47;12.50;;;10.77;;
75603;SDS011;64187;51.010;13.792;2022-10-16T09:30:49;11.88;;;9.27;;
75603;SDS011;64187;51.010;13.792;2022-10-16T09:35:51;11.63;;;9.73;;
75603;SDS011;64187;51.010;13.792;2022-10-16T09:40:55;12.77;;;10.48;;
75603;SDS011;64187;51.010;13.792;2022-10-16T09:46:01;15.80;;;10.07;;
75603;SDS011;64187;51.010;13.792;2022-10-16T09:51:04;12.15;;;9.95;;
75603;SDS011;64187;51.010;13.792;2022-10-16T09:56:11;13.73;;;10.02;;
75603;SDS011;64187;51.010;13.792;2022-10-16T10:01:19;11.15;;;9.50;;
75603;SDS011;64187;51.010;13.792;2022-10-16T10:06:22;12.50;;;9.90;;
75603;SDS011;64187;51.010;13.792;2022-10-16T10:22:17;10.82;;;8.90;;
75603;SDS011;64187;51.010;13.792;2022-10-16T10:27:25;10.02;;;8.68;;
75603;SDS011;64187;51.010;13.792;2022-10-16T10:32:55;11.02;;;9.40;;
75603;SDS011;64187;51.010;13.792;2022-10-16T10:38:20;12.95;;;8.32;;
75603;SDS011;64187;51.010;13.792;2022-10-16T10:54:14;1.88;;;1.55;;
75603;SDS011;64187;51.010;13.792;2022-10-16T11:10:20;1.40;;;1.13;;
75603;SDS011;64187;51.010;13.792;2022-10-16T11:15:21;2.78;;;0.93;;
75603;SDS011;64187;51.010;13.792;2022-10-16T11:20:34;1.75;;;0.70;;
75603;SDS011;64187;51.010;13.792;2022-10-16T11:25:38;0.85;;;0.75;;
75603;SDS011;64187;51.010;13.792;2022-10-16T11:30:48;0.90;;;0.80;;
75603;SDS011;64187;51.010;13.792;2022-10-16T11:41:10;1.10;;;0.98;;
75603;SDS011;64187;51.010;13.792;2022-10-16T11:46:20;0.60;;;0.60;;
75603;SDS011;64187;51.010;13.792;2022-10-16T11:51:25;1.00;;;0.90;;
75603;SDS011;64187;51.010;13.792;2022-10-16T11:56:32;2.47;;;1.13;;
75603;SDS011;64187;51.010;13.792;2022-10-16T12:01:53;0.57;;;0.57;;
75603;SDS011;64187;51.010;13.792;2022-10-16T12:12:23;0.50;;;0.50;;
75603;SDS011;64187;51.010;13.792;2022-10-16T12:17:37;1.05;;;0.73;;
75603;SDS011;64187;51.010;13.792;2022-10-16T12:22:36;1.02;;;0.60;;
75603;SDS011;64187;51.010;13.792;2022-10-16T12:27:38;4.72;;;1.02;;
75603;SDS011;64187;51.010;13.792;2022-10-16T12:32:37;0.80;;;0.70;;
75603;SDS011;64187;51.010;13.792;2022-10-16T12:37:45;1.75;;;0.68;;
75603;SDS011;64187;51.010;13.792;2022-10-16T12:42:44;1.40;;;0.68;;
75603;SDS011;64187;51.010;13.792;2022-10-16T12:47:48;1.52;;;0.68;;
75603;SDS011;64187;51.010;13.792;2022-10-16T12:52:49;0.52;;;0.50;;
75603;SDS011;64187;51.010;13.792;2022-10-16T13:30:26;0.80;;;0.60;;
75603;SDS011;64187;51.010;13.792;2022-10-16T13:35:29;1.40;;;0.80;;
75603;SDS011;64187;51.010;13.792;2022-10-16T13:40:30;1.88;;;1.77;;
75603;SDS011;64187;51.010;13.792;2022-10-16T13:45:29;1.90;;;0.88;;
75603;SDS011;64187;51.010;13.792;2022-10-16T13:50:28;1.40;;;1.10;;
75603;SDS011;64187;51.010;13.792;2022-10-16T13:55:27;1.23;;;1.13;;
75603;SDS011;64187;51.010;13.792;2022-10-16T14:00:26;1.42;;;1.10;;
75603;SDS011;64187;51.010;13.792;2022-10-16T14:05:30;2.00;;;1.17;;
75603;SDS011;64187;51.010;13.792;2022-10-16T14:10:32;2.78;;;1.10;;
75603;SDS011;64187;51.010;13.792;2022-10-16T14:15:32;1.95;;;1.08;;
75603;SDS011;64187;51.010;13.792;2022-10-16T14:20:33;1.70;;;0.82;;
75603;SDS011;64187;51.010;13.792;2022-10-16T14:25:32;0.82;;;0.63;;
75603;SDS011;64187;51.010;13.792;2022-10-16T14:30:33;0.88;;;0.63;;
75603;SDS011;64187;51.010;13.792;2022-10-16T14:35:35;1.35;;;0.80;;
75603;SDS011;64187;51.010;13.792;2022-10-16T14:40:36;1.10;;;0.80;;
75603;SDS011;64187;51.010;13.792;2022-10-16T14:45:35;1.38;;;0.95;;
75603;SDS011;64187;51.010;13.792;2022-10-16T14:50:34;1.25;;;0.85;;
75603;SDS011;64187;51.010;13.792;2022-10-16T14:55:33;2.70;;;1.10;;
75603;SDS011;64187;51.010;13.792;2022-10-16T15:00:35;1.52;;;1.05;;
75603;SDS011;64187;51.010;13.792;2022-10-16T15:05:34;1.33;;;1.08;;
75603;SDS011;64187;51.010;13.792;2022-10-16T15:10:35;2.03;;;1.70;;
75603;SDS011;64187;51.010;13.792;2022-10-16T15:15:40;2.15;;;1.90;;
75603;SDS011;64187;51.010;13.792;2022-10-16T15:20:44;3.20;;;1.33;;
75603;SDS011;64187;51.010;13.792;2022-10-16T15:25:44;2.92;;;2.63;;
75603;SDS011;64187;51.010;13.792;2022-10-16T15:30:45;2.30;;;1.60;;
75603;SDS011;64187;51.010;13.792;2022-10-16T15:35:47;3.17;;;2.10;;
75603;SDS011;64187;51.010;13.792;2022-10-16T15:40:47;1.95;;;1.50;;
75603;SDS011;64187;51.010;13.792;2022-10-16T15:45:52;4.00;;;2.25;;
75603;SDS011;64187;51.010;13.792;2022-10-16T15:51:02;2.47;;;1.98;;
75603;SDS011;64187;51.010;13.792;2022-10-16T15:56:04;2.55;;;2.03;;
75603;SDS011;64187;51.010;13.792;2022-10-16T16:01:05;3.40;;;3.10;;
75603;SDS011;64187;51.010;13.792;2022-10-16T16:06:04;3.92;;;2.20;;
75603;SDS011;64187;51.010;13.792;2022-10-16T16:11:06;5.97;;;3.72;;
75603;SDS011;64187;51.010;13.792;2022-10-16T16:16:07;7.78;;;4.82;;
75603;SDS011;64187;51.010;13.792;2022-10-16T16:21:09;5.85;;;4.10;;
75603;SDS011;64187;51.010;13.792;2022-10-16T16:26:14;3.40;;;3.08;;
75603;SDS011;64187;51.010;13.792;2022-10-16T16:31:26;5.43;;;4.50;;
75603;SDS011;64187;51.010;13.792;2022-10-16T16:36:26;4.70;;;3.15;;
75603;SDS011;64187;51.010;13.792;2022-10-16T16:41:26;6.00;;;3.70;;
75603;SDS011;64187;51.010;13.792;2022-10-16T16:46:26;5.45;;;4.32;;
75603;SDS011;64187;51.010;13.792;2022-10-16T16:51:25;7.00;;;3.95;;
75603;SDS011;64187;51.010;13.792;2022-10-16T16:56:24;4.80;;;3.80;;
75603;SDS011;64187;51.010;13.792;2022-10-16T17:01:25;3.95;;;3.13;;
75603;SDS011;64187;51.010;13.792;2022-10-16T17:06:26;5.50;;;2.63;;
75603;SDS011;64187;51.010;13.792;2022-10-16T17:11:28;3.47;;;2.67;;
75603;SDS011;64187;51.010;13.792;2022-10-16T17:16:29;4.68;;;2.78;;
75603;SDS011;64187;51.010;13.792;2022-10-16T17:21:30;3.67;;;2.90;;
75603;SDS011;64187;51.010;13.792;2022-10-16T17:26:30;6.35;;;3.45;;
75603;SDS011;64187;51.010;13.792;2022-10-16T17:31:30;5.38;;;3.70;;
75603;SDS011;64187;51.010;13.792;2022-10-16T17:36:31;5.55;;;4.13;;
75603;SDS011;64187;51.010;13.792;2022-10-16T17:41:32;7.05;;;4.18;;
75603;SDS011;64187;51.010;13.792;2022-10-16T17:46:32;8.35;;;4.32;;
75603;SDS011;64187;51.010;13.792;2022-10-16T17:51:37;6.70;;;4.93;;
75603;SDS011;64187;51.010;13.792;2022-10-16T17:56:36;7.57;;;6.15;;
75603;SDS011;64187;51.010;13.792;2022-10-16T18:01:36;9.38;;;6.13;;
75603;SDS011;64187;51.010;13.792;2022-10-16T18:06:39;11.63;;;5.68;;
75603;SDS011;64187;51.010;13.792;2022-10-16T18:11:50;9.98;;;5.90;;
75603;SDS011;64187;51.010;13.792;2022-10-16T18:16:57;8.73;;;5.78;;
75603;SDS011;64187;51.010;13.792;2022-10-16T18:21:56;7.85;;;5.72;;
75603;SDS011;64187;51.010;13.792;2022-10-16T18:26:56;11.90;;;6.43;;
75603;SDS011;64187;51.010;13.792;2022-10-16T18:31:55;13.98;;;6.65;;
75603;SDS011;64187;51.010;13.792;2022-10-16T18:36:54;9.27;;;6.75;;
75603;SDS011;64187;51.010;13.792;2022-10-16T18:41:55;8.65;;;6.30;;
75603;SDS011;64187;51.010;13.792;2022-10-16T18:46:57;10.68;;;6.35;;
75603;SDS011;64187;51.010;13.792;2022-10-16T18:51:56;10.20;;;6.60;;
75603;SDS011;64187;51.010;13.792;2022-10-16T18:56:55;11.60;;;8.35;;
75603;SDS011;64187;51.010;13.792;2022-10-16T19:01:54;11.80;;;6.35;;
75603;SDS011;64187;51.010;13.792;2022-10-16T19:06:53;7.35;;;5.65;;
75603;SDS011;64187;51.010;13.792;2022-10-16T19:11:52;7.57;;;5.50;;
75603;SDS011;64187;51.010;13.792;2022-10-16T19:16:51;9.65;;;6.60;;
75603;SDS011;64187;51.010;13.792;2022-10-16T19:21:50;9.77;;;7.07;;
75603;SDS011;64187;51.010;13.792;2022-10-16T19:26:53;10.80;;;8.60;;
75603;SDS011;64187;51.010;13.792;2022-10-16T19:31:52;11.75;;;7.20;;
75603;SDS011;64187;51.010;13.792;2022-10-16T19:36:51;12.45;;;7.50;;
75603;SDS011;64187;51.010;13.792;2022-10-16T19:41:50;11.88;;;8.38;;
75603;SDS011;64187;51.010;13.792;2022-10-16T19:46:49;10.45;;;7.35;;
75603;SDS011;64187;51.010;13.792;2022-10-16T19:51:48;10.65;;;6.68;;
75603;SDS011;64187;51.010;13.792;2022-10-16T19:56:49;11.82;;;7.45;;
75603;SDS011;64187;51.010;13.792;2022-10-16T20:01:47;5.90;;;4.78;;
75603;SDS011;64187;51.010;13.792;2022-10-16T20:06:46;10.73;;;7.57;;
75603;SDS011;64187;51.010;13.792;2022-10-16T20:11:45;10.93;;;7.28;;
75603;SDS011;64187;51.010;13.792;2022-10-16T20:16:44;8.88;;;7.57;;
75603;SDS011;64187;51.010;13.792;2022-10-16T20:21:43;10.25;;;6.45;;
75603;SDS011;64187;51.010;13.792;2022-10-16T20:26:42;9.13;;;6.38;;
75603;SDS011;64187;51.010;13.792;2022-10-16T20:31:40;7.18;;;5.53;;
75603;SDS011;64187;51.010;13.792;2022-10-16T20:36:39;9.90;;;6.20;;
75603;SDS011;64187;51.010;13.792;2022-10-16T20:41:40;7.65;;;6.20;;
75603;SDS011;64187;51.010;13.792;2022-10-16T20:46:39;9.73;;;5.85;;
75603;SDS011;64187;51.010;13.792;2022-10-16T20:51:39;6.90;;;6.30;;
75603;SDS011;64187;51.010;13.792;2022-10-16T20:56:37;5.65;;;4.85;;
75603;SDS011;64187;51.010;13.792;2022-10-16T21:01:36;6.30;;;4.93;;
75603;SDS011;64187;51.010;13.792;2022-10-16T21:06:36;7.13;;;4.63;;
75603;SDS011;64187;51.010;13.792;2022-10-16T21:11:36;5.40;;;4.50;;
75603;SDS011;64187;51.010;13.792;2022-10-16T21:16:35;9.70;;;6.47;;
75603;SDS011;64187;51.010;13.792;2022-10-16T21:21:36;8.30;;;5.63;;
75603;SDS011;64187;51.010;13.792;2022-10-16T21:26:35;9.80;;;6.68;;
75603;SDS011;64187;51.010;13.792;2022-10-16T21:31:34;10.13;;;6.15;;
75603;SDS011;64187;51.010;13.792;2022-10-16T21:36:34;7.95;;;5.40;;
75603;SDS011;64187;51.010;13.792;2022-10-16T21:41:35;6.00;;;4.85;;
75603;SDS011;64187;51.010;13.792;2022-10-16T21:46:35;9.05;;;5.43;;
75603;SDS011;64187;51.010;13.792;2022-10-16T21:51:35;8.38;;;5.70;;
75603;SDS011;64187;51.010;13.792;2022-10-16T21:56:36;8.38;;;5.15;;
75603;SDS011;64187;51.010;13.792;2022-10-16T22:01:35;6.55;;;4.95;;
75603;SDS011;64187;51.010;13.792;2022-10-16T22:06:34;8.02;;;5.10;;
75603;SDS011;64187;51.010;13.792;2022-10-16T22:11:34;9.75;;;4.55;;
75603;SDS011;64187;51.010;13.792;2022-10-16T22:16:34;6.85;;;4.88;;
75603;SDS011;64187;51.010;13.792;2022-10-16T22:21:37;8.27;;;5.93;;
75603;SDS011;64187;51.010;13.792;2022-10-16T22:26:37;6.20;;;4.60;;
75603;SDS011;64187;51.010;13.792;2022-10-16T22:31:36;9.02;;;4.75;;
75603;SDS011;64187;51.010;13.792;2022-10-16T22:36:35;5.22;;;4.72;;
75603;SDS011;64187;51.010;13.792;2022-10-16T22:41:34;6.28;;;4.40;;
75603;SDS011;64187;51.010;13.792;2022-10-16T22:46:32;7.32;;;4.25;;
75603;SDS011;64187;51.010;13.792;2022-10-16T22:51:31;5.97;;;4.47;;
75603;SDS011;64187;51.010;13.792;2022-10-16T22:56:30;7.53;;;4.53;;
75603;SDS011;64187;51.010;13.792;2022-10-16T23:01:30;6.45;;;3.88;;
75603;SDS011;64187;51.010;13.792;2022-10-16T23:06:34;7.20;;;4.60;;
75603;SDS011;64187;51.010;13.792;2022-10-16T23:11:32;5.78;;;4.32;;
75603;SDS011;64187;51.010;13.792;2022-10-16T23:16:31;8.60;;;4.78;;
75603;SDS011;64187;51.010;13.792;2022-10-16T23:21:30;7.30;;;4.70;;
75603;SDS011;64187;51.010;13.792;2022-10-16T23:26:29;7.57;;;4.40;;
75603;SDS011;64187;51.010;13.792;2022-10-16T23:31:28;6.38;;;4.25;;
75603;SDS011;64187;51.010;13.792;2022-10-16T23:36:27;7.88;;;4.75;;
75603;SDS011;64187;51.010;13.792;2022-10-16T23:41:26;6.32;;;5.18;;
75603;SDS011;64187;51.010;13.792;2022-10-16T23:46:24;5.85;;;4.47;;
75603;SDS011;64187;51.010;13.792;2022-10-16T23:51:23;6.25;;;4.95;;
75603;SDS011;64187;51.010;13.792;2022-10-16T23:56:22;6.03;;;4.43;;
